createdAt,value
2023-03-26T00:02:04.085Z,8.88
2023-03-26T00:04:34.057Z,8.90
2023-03-26T00:07:00.732Z,8.89
2023-03-26T00:09:30.331Z,8.88
2023-03-26T00:11:57.404Z,8.87
2023-03-26T00:17:10.213Z,8.67
2023-03-26T00:19:37.974Z,8.64
2023-03-26T00:22:04.917Z,8.57
2023-03-26T00:24:32.063Z,8.48
2023-03-26T00:26:59.530Z,8.41
2023-03-26T00:29:28.043Z,8.39
2023-03-26T00:31:54.733Z,8.36
2023-03-26T00:34:22.971Z,8.34
2023-03-26T00:37:00.529Z,8.33
2023-03-26T00:42:15.117Z,8.21
2023-03-26T00:44:41.621Z,8.20
2023-03-26T00:47:08.384Z,8.22
2023-03-26T00:49:34.850Z,8.18
2023-03-26T00:52:02.979Z,8.20
2023-03-26T00:54:29.815Z,8.25
2023-03-26T00:56:56.316Z,8.30
2023-03-26T00:59:22.963Z,8.39
2023-03-26T01:01:51.185Z,8.46
2023-03-26T01:04:34.794Z,8.52
2023-03-26T01:07:05.663Z,8.53
2023-03-26T01:09:35.762Z,8.48
2023-03-26T01:12:03.649Z,8.45
2023-03-26T01:14:30.196Z,8.45
2023-03-26T01:17:01.710Z,8.32
2023-03-26T01:19:48.692Z,8.28
2023-03-26T01:22:20.733Z,8.29
2023-03-26T01:24:52.856Z,8.25
2023-03-26T01:27:34.494Z,8.27
2023-03-26T01:30:30.928Z,8.26
2023-03-26T01:33:23.522Z,8.26
2023-03-26T01:36:00.302Z,8.28
2023-03-26T01:38:39.823Z,8.28
2023-03-26T01:41:11.679Z,8.33
2023-03-26T01:44:02.562Z,8.43
2023-03-26T01:46:30.432Z,8.44
2023-03-26T01:48:56.946Z,8.43
2023-03-26T01:51:36.190Z,8.44
2023-03-26T01:54:03.463Z,8.44
2023-03-26T01:57:23.556Z,8.41
2023-03-26T02:00:13.575Z,8.39
2023-03-26T02:03:01.877Z,8.35
2023-03-26T02:05:43.750Z,8.33
2023-03-26T02:08:23.612Z,8.29
2023-03-26T02:10:55.709Z,8.26
2023-03-26T02:13:22.521Z,8.25
2023-03-26T02:16:03.306Z,8.20
2023-03-26T02:18:36.564Z,8.22
2023-03-26T02:21:06.256Z,8.22
2023-03-26T02:23:35.713Z,8.26
2023-03-26T02:26:06.207Z,8.27
2023-03-26T02:28:34.061Z,8.28
2023-03-26T02:31:01.670Z,8.34
2023-03-26T02:33:30.198Z,8.36
2023-03-26T02:36:01.865Z,8.36
2023-03-26T02:38:30.344Z,8.35
2023-03-26T02:40:56.949Z,8.37
2023-03-26T02:43:33.278Z,8.41
2023-03-26T02:46:00.149Z,8.46
2023-03-26T02:48:46.763Z,8.49
2023-03-26T02:51:21.817Z,8.49
2023-03-26T02:54:18.145Z,8.47
2023-03-26T02:57:01.082Z,8.47
2023-03-26T02:59:46.273Z,8.53
2023-03-26T03:02:31.644Z,8.56
2023-03-26T03:05:11.581Z,8.61
2023-03-26T03:07:38.811Z,8.58
2023-03-26T03:10:09.853Z,8.58
2023-03-26T03:12:55.187Z,8.61
2023-03-26T03:15:21.598Z,8.61
2023-03-26T03:17:48.085Z,8.61
2023-03-26T03:20:15.400Z,8.63
2023-03-26T03:22:42.337Z,8.60
2023-03-26T03:25:09.399Z,8.62
2023-03-26T03:27:39.172Z,8.64
2023-03-26T03:30:12.263Z,8.65
2023-03-26T03:33:07.982Z,8.67
2023-03-26T03:35:35.206Z,8.66
2023-03-26T03:38:01.956Z,8.67
2023-03-26T03:40:34.183Z,8.66
2023-03-26T03:43:00.799Z,8.64
2023-03-26T03:45:38.403Z,8.61
2023-03-26T03:48:13.599Z,8.62
2023-03-26T03:50:43.717Z,8.63
2023-03-26T03:53:22.417Z,8.72
2023-03-26T03:55:53.691Z,8.64
2023-03-26T03:58:24.423Z,8.61
2023-03-26T04:00:53.040Z,8.67
2023-03-26T04:03:46.138Z,8.72
2023-03-26T04:06:18.838Z,8.76
2023-03-26T04:08:50.176Z,8.76
2023-03-26T04:11:17.029Z,8.73
2023-03-26T04:14:02.662Z,8.76
2023-03-26T04:16:49.013Z,8.72
2023-03-26T04:19:16.098Z,8.58
2023-03-26T04:21:42.911Z,8.55
2023-03-26T04:24:10.760Z,8.60
2023-03-26T04:27:19.170Z,8.60
2023-03-26T04:29:49.581Z,8.57
2023-03-26T04:32:29.586Z,8.57
2023-03-26T04:35:00.576Z,8.54
2023-03-26T04:37:34.394Z,8.49
2023-03-26T04:40:20.173Z,8.47
2023-03-26T04:43:02.244Z,8.46
2023-03-26T04:45:48.945Z,8.42
2023-03-26T04:48:17.498Z,8.35
2023-03-26T04:50:45.070Z,8.34
2023-03-26T04:53:15.187Z,8.32
2023-03-26T04:56:30.701Z,8.29
2023-03-26T04:59:26.084Z,8.32
2023-03-26T05:01:54.465Z,8.31
2023-03-26T05:04:23.869Z,8.35
2023-03-26T05:06:52.718Z,8.32
2023-03-26T05:09:29.253Z,8.34
2023-03-26T05:12:24.739Z,8.35
2023-03-26T05:15:14.777Z,8.31
2023-03-26T05:17:48.328Z,8.29
2023-03-26T05:20:26.379Z,8.32
2023-03-26T05:22:53.230Z,8.30
2023-03-26T05:25:28.848Z,8.37
2023-03-26T05:27:56.248Z,8.41
2023-03-26T05:30:27.316Z,8.47
2023-03-26T05:32:58.561Z,8.49
2023-03-26T05:35:30.709Z,8.51
2023-03-26T05:37:57.406Z,8.48
2023-03-26T05:40:25.212Z,8.44
2023-03-26T05:42:58.176Z,8.55
2023-03-26T05:45:37.073Z,8.56
2023-03-26T05:48:15.924Z,8.56
2023-03-26T05:50:42.385Z,8.56
2023-03-26T05:53:09.327Z,8.55
2023-03-26T05:55:57.753Z,8.56
2023-03-26T05:58:34.096Z,8.54
2023-03-26T06:01:25.540Z,8.50
2023-03-26T06:04:15.922Z,8.60
2023-03-26T06:06:52.623Z,8.60
2023-03-26T06:09:19.921Z,8.61
2023-03-26T06:11:46.375Z,8.66
2023-03-26T06:14:12.919Z,8.68
2023-03-26T06:16:50.775Z,8.67
2023-03-26T06:19:20.410Z,8.64
2023-03-26T06:21:55.861Z,8.68
2023-03-26T06:24:26.392Z,8.66
2023-03-26T06:27:21.416Z,8.58
2023-03-26T06:29:59.916Z,8.59
2023-03-26T06:32:38.144Z,8.58
2023-03-26T06:35:15.235Z,8.47
2023-03-26T06:37:42.277Z,8.42
2023-03-26T06:40:09.231Z,8.36
2023-03-26T06:43:09.848Z,8.39
2023-03-26T06:45:52.394Z,8.44
2023-03-26T06:48:44.797Z,8.49
2023-03-26T06:51:49.855Z,8.47
2023-03-26T06:54:39.433Z,8.48
2023-03-26T06:57:14.841Z,8.45
2023-03-26T07:00:17.094Z,8.46
2023-03-26T07:03:04.166Z,8.46
2023-03-26T07:05:49.542Z,8.52
2023-03-26T07:08:34.800Z,8.53
2023-03-26T07:11:39.848Z,8.56
2023-03-26T07:14:25.062Z,8.60
2023-03-26T07:17:05.178Z,8.63
2023-03-26T07:19:36.576Z,8.68
2023-03-26T07:22:03.381Z,8.55
2023-03-26T07:25:08.501Z,8.54
2023-03-26T07:28:24.314Z,8.60
2023-03-26T07:31:29.568Z,8.53
2023-03-26T07:34:42.713Z,8.51
2023-03-26T07:37:52.994Z,8.53
2023-03-26T07:40:46.478Z,8.56
2023-03-26T07:44:01.991Z,8.53
2023-03-26T07:46:41.432Z,8.52
2023-03-26T07:49:31.327Z,8.46
2023-03-26T07:52:16.461Z,8.46
2023-03-26T07:54:52.796Z,8.49
2023-03-26T07:58:02.633Z,8.59
2023-03-26T08:01:26.044Z,8.61
2023-03-26T08:04:24.192Z,8.69
2023-03-26T08:07:45.018Z,8.78
2023-03-26T08:10:39.259Z,8.85
2023-03-26T08:13:26.844Z,8.86
2023-03-26T08:16:00.384Z,8.89
2023-03-26T08:18:54.465Z,8.91
2023-03-26T08:21:28.343Z,8.89
2023-03-26T08:24:00.796Z,8.85
2023-03-26T08:26:58.288Z,8.84
2023-03-26T08:29:34.381Z,8.75
2023-03-26T08:32:01.646Z,8.67
2023-03-26T08:34:28.091Z,8.69
2023-03-26T08:36:54.529Z,8.69
2023-03-26T08:39:22.225Z,8.64
2023-03-26T08:42:10.151Z,8.59
2023-03-26T08:45:00.295Z,8.50
2023-03-26T08:47:45.274Z,8.42
2023-03-26T08:50:29.722Z,8.32
2023-03-26T08:53:23.425Z,8.16
2023-03-26T08:55:56.680Z,8.08
2023-03-26T08:58:45.836Z,8.12
2023-03-26T09:01:33.274Z,8.12
2023-03-26T09:04:11.837Z,8.17
2023-03-26T09:06:59.870Z,8.19
2023-03-26T09:10:09.267Z,8.27
2023-03-26T09:12:54.521Z,8.40
2023-03-26T09:15:27.141Z,8.47
2023-03-26T09:18:16.814Z,8.40
2023-03-26T09:21:22.174Z,8.46
2023-03-26T09:24:10.955Z,8.54
2023-03-26T09:26:47.209Z,8.59
2023-03-26T09:29:52.162Z,8.58
2023-03-26T09:32:42.930Z,8.58
2023-03-26T09:35:26.103Z,8.51
2023-03-26T09:38:12.036Z,8.50
2023-03-26T09:40:53.143Z,8.53
2023-03-26T09:43:45.418Z,8.57
2023-03-26T09:46:29.144Z,8.64
2023-03-26T09:49:10.463Z,8.64
2023-03-26T09:51:46.362Z,8.56
2023-03-26T09:54:44.088Z,8.49
2023-03-26T09:57:39.434Z,8.48
2023-03-26T10:00:20.954Z,8.42
2023-03-26T10:02:58.818Z,8.39
2023-03-26T10:05:44.260Z,8.41
2023-03-26T10:08:20.277Z,8.48
2023-03-26T10:10:53.588Z,8.52
2023-03-26T10:13:34.114Z,8.58
2023-03-26T10:16:40.812Z,8.70
2023-03-26T10:19:29.197Z,8.85
2023-03-26T10:22:14.576Z,9.06
2023-03-26T10:24:54.341Z,9.21
2023-03-26T10:27:44.412Z,9.30
2023-03-26T10:30:56.589Z,9.34
2023-03-26T10:33:40.862Z,9.38
2023-03-26T10:36:36.364Z,9.45
2023-03-26T10:39:11.719Z,9.51
2023-03-26T10:42:10.236Z,9.54
2023-03-26T10:44:57.654Z,9.56
2023-03-26T10:47:50.170Z,9.59
2023-03-26T10:50:26.781Z,9.69
2023-03-26T10:53:03.592Z,9.74
2023-03-26T10:55:47.284Z,9.77
2023-03-26T10:58:29.377Z,9.80
2023-03-26T11:01:37.456Z,9.85
2023-03-26T11:04:15.370Z,9.94
2023-03-26T11:06:59.600Z,10.07
2023-03-26T11:09:48.892Z,10.24
2023-03-26T11:12:28.615Z,10.39
2023-03-26T11:15:07.379Z,10.46
2023-03-26T11:18:01.128Z,10.55
2023-03-26T11:20:37.773Z,10.64
2023-03-26T11:23:43.093Z,10.55
2023-03-26T11:26:16.962Z,10.51
2023-03-26T11:29:04.424Z,10.50
2023-03-26T11:31:46.005Z,10.40
2023-03-26T11:34:21.391Z,10.32
2023-03-26T11:36:54.506Z,10.29
2023-03-26T11:39:27.005Z,10.28
2023-03-26T11:42:02.891Z,10.37
2023-03-26T11:44:42.730Z,10.48
2023-03-26T11:47:10.523Z,10.54
2023-03-26T11:49:39.617Z,10.73
2023-03-26T11:52:07.493Z,10.82
2023-03-26T11:54:33.911Z,10.87
2023-03-26T11:57:07.296Z,10.80
2023-03-26T11:59:49.020Z,10.78
2023-03-26T12:02:29.281Z,10.69
2023-03-26T12:05:27.218Z,10.65
2023-03-26T12:08:01.064Z,10.74
2023-03-26T12:10:34.753Z,10.76
2023-03-26T12:13:21.893Z,10.78
2023-03-26T12:15:48.555Z,10.96
2023-03-26T12:18:24.447Z,11.05
2023-03-26T12:21:22.178Z,11.11
2023-03-26T12:23:56.066Z,11.20
2023-03-26T12:26:41.286Z,11.22
2023-03-26T12:29:18.959Z,11.27
2023-03-26T12:31:48.365Z,11.27
2023-03-26T12:34:16.158Z,11.30
2023-03-26T12:36:52.762Z,11.32
2023-03-26T12:40:10.664Z,11.38
2023-03-26T12:44:44.496Z,11.65
2023-03-26T12:45:43.091Z,11.88
2023-03-26T12:48:15.579Z,12.03
2023-03-26T12:50:59.124Z,12.08
2023-03-26T12:53:46.645Z,11.98
2023-03-26T12:56:36.061Z,11.76
2023-03-26T12:59:18.377Z,11.66
2023-03-26T13:02:34.342Z,11.67
2023-03-26T13:05:19.555Z,11.73
2023-03-26T13:08:00.278Z,11.72
2023-03-26T13:10:45.396Z,11.58
2023-03-26T13:13:33.527Z,11.41
2023-03-26T13:16:28.306Z,11.31
2023-03-26T13:19:15.998Z,11.38
2023-03-26T13:21:59.524Z,11.41
2023-03-26T13:24:47.381Z,11.52
2023-03-26T13:27:50.767Z,11.72
2023-03-26T13:30:22.982Z,11.82
2023-03-26T13:33:02.841Z,11.94
2023-03-26T13:35:29.636Z,11.99
2023-03-26T13:38:16.026Z,11.99
2023-03-26T13:41:16.720Z,12.01
2023-03-26T13:44:13.499Z,11.98
2023-03-26T13:46:51.748Z,12.00
2023-03-26T13:49:24.532Z,12.07
2023-03-26T13:51:57.244Z,12.17
2023-03-26T13:54:31.234Z,12.18
2023-03-26T13:57:06.697Z,12.23
2023-03-26T13:59:41.447Z,12.22
2023-03-26T14:02:12.001Z,12.18
2023-03-26T14:04:46.301Z,12.11
2023-03-26T14:07:17.919Z,12.05
2023-03-26T14:09:54.291Z,12.04
2023-03-26T14:12:48.906Z,12.04
2023-03-26T14:15:42.200Z,11.98
2023-03-26T14:18:28.385Z,11.98
2023-03-26T14:21:21.555Z,11.99
2023-03-26T14:24:09.647Z,12.14
2023-03-26T14:26:38.989Z,12.26
2023-03-26T14:29:09.959Z,12.32
2023-03-26T14:31:43.295Z,12.37
2023-03-26T14:34:30.137Z,12.44
2023-03-26T14:37:06.616Z,12.44
2023-03-26T14:40:01.364Z,12.45
2023-03-26T14:43:07.920Z,12.39
2023-03-26T14:45:58.340Z,12.36
2023-03-26T14:48:44.255Z,12.33
2023-03-26T14:51:32.386Z,12.34
2023-03-26T14:54:11.979Z,12.33
2023-03-26T14:56:41.267Z,12.28
2023-03-26T14:59:26.748Z,12.26
2023-03-26T15:02:05.497Z,12.20
2023-03-26T15:04:38.303Z,12.16
2023-03-26T15:07:30.080Z,12.12
2023-03-26T15:10:14.484Z,12.11
2023-03-26T15:13:13.170Z,12.12
2023-03-26T15:15:58.369Z,12.13
2023-03-26T15:18:43.613Z,12.12
2023-03-26T15:21:22.859Z,12.03
2023-03-26T15:23:54.080Z,12.01
2023-03-26T15:26:48.446Z,11.99
2023-03-26T15:29:30.247Z,11.94
2023-03-26T15:31:57.483Z,11.89
2023-03-26T15:34:43.740Z,11.86
2023-03-26T15:37:22.257Z,11.80
2023-03-26T15:40:16.080Z,11.73
2023-03-26T15:43:11.891Z,11.68
2023-03-26T15:45:42.352Z,11.58
2023-03-26T15:48:12.056Z,11.44
2023-03-26T15:51:07.498Z,11.32
2023-03-26T15:53:54.917Z,11.26
2023-03-26T15:56:43.459Z,11.13
2023-03-26T15:59:42.494Z,11.02
2023-03-26T16:02:36.338Z,10.94
2023-03-26T16:05:19.291Z,10.88
2023-03-26T16:08:02.757Z,10.82
2023-03-26T16:10:42.239Z,10.74
2023-03-26T16:13:30.443Z,10.69
2023-03-26T16:16:03.383Z,10.63
2023-03-26T16:18:32.680Z,10.55
2023-03-26T16:21:03.097Z,10.49
2023-03-26T16:23:34.543Z,10.39
2023-03-26T16:26:31.399Z,10.29
2023-03-26T16:29:18.241Z,10.21
2023-03-26T16:32:07.890Z,10.11
2023-03-26T16:34:41.888Z,10.09
2023-03-26T16:37:35.926Z,10.05
2023-03-26T16:40:17.971Z,9.88
2023-03-26T16:42:53.256Z,9.65
2023-03-26T16:45:32.102Z,9.46
2023-03-26T16:48:16.713Z,9.29
2023-03-26T16:51:08.507Z,9.13
2023-03-26T16:53:42.685Z,9.12
2023-03-26T16:56:33.536Z,9.11
2023-03-26T16:59:09.990Z,9.11
2023-03-26T17:02:08.350Z,9.12
2023-03-26T17:04:36.789Z,9.20
2023-03-26T17:07:08.488Z,9.23
2023-03-26T17:10:00.442Z,9.24
2023-03-26T17:12:32.717Z,9.27
2023-03-26T17:14:59.064Z,9.30
2023-03-26T17:17:37.772Z,9.30
2023-03-26T17:20:38.549Z,9.20
2023-03-26T17:23:10.752Z,9.14
2023-03-26T17:26:08.401Z,9.15
2023-03-26T17:29:10.843Z,9.09
2023-03-26T17:31:49.685Z,9.05
2023-03-26T17:34:56.498Z,8.99
2023-03-26T17:37:23.369Z,8.95
2023-03-26T17:39:52.836Z,8.87
2023-03-26T17:42:27.069Z,8.80
2023-03-26T17:44:55.453Z,8.75
2023-03-26T17:47:42.319Z,8.69
2023-03-26T17:50:18.251Z,8.69
2023-03-26T17:53:03.687Z,8.69
2023-03-26T17:55:32.403Z,8.67
2023-03-26T17:58:31.850Z,8.72
2023-03-26T18:01:07.621Z,8.73
2023-03-26T18:03:43.981Z,8.68
2023-03-26T18:06:19.705Z,8.63
2023-03-26T18:09:09.714Z,8.61
2023-03-26T21:42:51.784Z,7.39
2023-03-26T21:48:10.611Z,7.43
2023-03-26T22:05:40.539Z,7.22
2023-03-26T22:08:08.165Z,7.21
2023-03-26T22:10:34.743Z,7.21
2023-03-26T22:13:01.274Z,7.12
2023-03-26T22:15:30.455Z,6.92
2023-03-26T22:18:01.871Z,6.83
2023-03-26T22:20:28.544Z,6.80
2023-03-26T22:22:55.802Z,6.80
2023-03-26T22:25:23.337Z,6.78
2023-03-26T22:27:50.766Z,6.73
2023-03-26T22:30:17.713Z,6.69
2023-03-26T22:32:44.652Z,6.64
2023-03-26T22:35:11.349Z,6.61
2023-03-26T22:37:37.871Z,6.54
2023-03-26T22:40:08.806Z,6.58
2023-03-26T22:42:36.016Z,6.45
2023-03-26T22:45:02.767Z,6.47
2023-03-26T22:47:30.481Z,6.48
2023-03-26T22:49:57.197Z,6.50
2023-03-26T22:52:23.701Z,6.49
2023-03-26T22:54:50.130Z,6.54
2023-03-26T22:57:16.983Z,6.55
2023-03-26T22:59:43.848Z,6.49
2023-03-26T23:02:12.243Z,6.44
2023-03-26T23:04:38.762Z,6.44
2023-03-26T23:07:05.846Z,6.43
2023-03-26T23:09:32.366Z,6.45
2023-03-26T23:11:58.838Z,6.44
2023-03-26T23:14:25.375Z,6.31
2023-03-26T23:16:51.904Z,6.18
2023-03-26T23:19:18.519Z,6.07
2023-03-26T23:21:45.353Z,6.07
2023-03-26T23:24:11.790Z,6.00
2023-03-26T23:26:49.650Z,5.99
2023-03-26T23:29:17.227Z,5.87
2023-03-26T23:31:43.857Z,5.79
2023-03-26T23:34:10.938Z,5.73
2023-03-26T23:36:37.420Z,5.68
2023-03-26T23:39:04.637Z,5.67
2023-03-26T23:41:31.376Z,5.75
2023-03-26T23:43:57.839Z,5.67
2023-03-26T23:46:30.185Z,5.66
2023-03-26T23:48:59.534Z,5.62
2023-03-26T23:51:26.029Z,5.68
2023-03-26T23:53:53.378Z,5.70
2023-03-26T23:56:20.193Z,5.62
2023-03-26T23:58:48.559Z,5.64
